Boulder City, Nevada
Current Conditions -  °F | °C
As of 1:55 AM on Saturday 25 Oct 2014 (Local Time) from KBVU Reporting Station
Clear Clear  
Wind Chill: 64°   Ceiling: Unl
Heat Index: 64°   Visibility: 10mi
Dew Point: 41°   Wind: 0mph
Humidity: 42%   Direction: NA
Pressure: 30.04"   Gusts: NA
Location:  35.98°N, 114.83°W
Report Text: KBVU 250855Z AUTO 00000KT 10SM CLR 18/05 A3004 RMK AO2
Loading
Personal Weather Stations






























Interactive Weather Map New forecast layout! Learn more

10-Day Weather Forecast

Advertisements
Track Severe Weather on mobile